Time;durP1;ratioP1;P1;durP2;ratioP2;P2;SDS_P1;SDS_P2;PMS_P1;PMS_P2;Temp;Humidity;BMP_temperature;BMP_pressure;BME280_temperature;BME280_humidity;BME280_pressure;Samples;Min_cycle;Max_cycle;Signal;HPM_P1;HPM_P2
2024/04/22 00:02:04;;;;;;;;;11.50;9.50;;;;;-143.90;100.00;76092.31;5297580;25;98700;-75
2024/04/22 00:04:31;;;;;;;;;14.75;13.00;;;;;-143.90;100.00;76098.53;5317743;25;99190;-75
2024/04/22 00:06:57;;;;;;;;;14.25;12.25;;;;;-143.90;100.00;76102.66;5321369;25;102202;-75
2024/04/22 00:09:24;;;;;;;;;10.00;9.50;;;;;-143.90;100.00;76098.53;5317691;25;99766;-75
2024/04/22 00:11:51;;;;;;;;;12.25;10.00;;;;;-143.90;100.00;76100.59;5316655;25;98584;-75
2024/04/22 00:14:17;;;;;;;;;10.25;8.50;;;;;-143.90;100.00;76102.66;5307410;25;97964;-74
2024/04/22 00:16:44;;;;;;;;;7.50;6.25;;;;;-143.90;100.00;76100.59;5325753;25;98947;-75
2024/04/22 00:19:11;;;;;;;;;9.00;8.00;;;;;-143.90;100.00;76096.44;5309848;25;99855;-75
2024/04/22 00:21:38;;;;;;;;;12.00;10.00;;;;;-143.90;100.00;76102.66;5317145;25;98439;-75
2024/04/22 00:24:07;;;;;;;;;14.00;10.75;;;;;-143.90;100.00;76100.59;5310470;25;98016;-75
2024/04/22 00:26:34;;;;;;;;;10.50;9.50;;;;;-143.90;100.00;76102.66;5287133;25;98588;-75
2024/04/22 00:29:00;;;;;;;;;10.25;7.50;;;;;-143.90;100.00;76100.59;5317190;26;99712;-75
2024/04/22 00:31:27;;;;;;;;;16.50;10.75;;;;;-143.90;100.00;76104.72;5317246;25;99746;-73
2024/04/22 00:33:54;;;;;;;;;15.75;13.00;;;;;-143.90;100.00;76106.78;5320873;25;97961;-75
2024/04/22 00:36:21;;;;;;;;;13.00;10.00;;;;;-143.90;100.00;76104.72;5313732;25;98467;-75
2024/04/22 00:38:47;;;;;;;;;13.50;12.50;;;;;-143.90;100.00;76110.94;5314293;25;99689;-76
2024/04/22 00:41:14;;;;;;;;;15.75;11.00;;;;;-143.90;100.00;76115.06;5306959;25;99508;-75
2024/04/22 00:43:41;;;;;;;;;13.75;12.00;;;;;-143.90;100.00;76119.19;5308829;25;98340;-74
2024/04/22 00:46:08;;;;;;;;;16.75;9.00;;;;;-143.90;100.00;76119.19;5307314;25;103290;-75
2024/04/22 00:48:36;;;;;;;;;13.75;10.50;;;;;-143.90;100.00;76121.28;5321092;25;99827;-74
2024/04/22 00:51:03;;;;;;;;;10.25;9.00;;;;;-143.90;100.00;76123.34;5307602;25;98229;-75
2024/04/22 00:53:31;;;;;;;;;14.00;10.25;;;;;-143.90;100.00;76119.19;5317972;25;99935;-75
2024/04/22 00:55:59;;;;;;;;;14.00;12.50;;;;;-143.90;100.00;76119.19;5309593;25;101545;-75
2024/04/22 00:58:28;;;;;;;;;11.00;10.25;;;;;-143.90;100.00;76123.34;5316574;25;99541;-74
2024/04/22 01:00:57;;;;;;;;;10.75;10.75;;;;;-143.90;100.00;76127.47;5290057;25;103260;-75
2024/04/22 01:03:24;;;;;;;;;12.00;12.00;;;;;-143.90;100.00;76117.13;5306669;25;99262;-75
2024/04/22 01:05:52;;;;;;;;;14.75;10.00;;;;;-143.90;100.00;76115.06;5315518;25;98548;-75
2024/04/22 01:08:18;;;;;;;;;9.00;7.00;;;;;-143.90;100.00;76125.41;5304833;25;100948;-75
2024/04/22 01:10:45;;;;;;;;;14.50;10.50;;;;;-143.90;100.00;76123.34;5312964;25;98330;-75
2024/04/22 01:13:12;;;;;;;;;11.75;11.00;;;;;-143.90;100.00;76131.59;5314594;25;98836;-74
2024/04/22 01:15:39;;;;;;;;;11.50;10.00;;;;;-143.90;100.00;76133.69;5320962;25;103941;-73
2024/04/22 01:18:06;;;;;;;;;9.75;9.00;;;;;-143.90;100.00;76135.75;5310907;25;99752;-75
2024/04/22 01:20:33;;;;;;;;;10.25;7.00;;;;;-143.90;100.00;76129.53;5314192;25;98099;-75
2024/04/22 01:22:59;;;;;;;;;12.25;11.00;;;;;-143.90;100.00;76139.88;5315916;25;98464;-75
2024/04/22 01:25:28;;;;;;;;;14.50;12.50;;;;;-143.90;100.00;76133.69;5312778;25;98024;-75
2024/04/22 01:27:55;;;;;;;;;15.00;13.00;;;;;-143.90;100.00;76135.75;5315558;25;99821;-75
2024/04/22 01:30:21;;;;;;;;;19.50;18.00;;;;;-143.90;100.00;76144.00;5314485;25;98612;-75
2024/04/22 01:32:48;;;;;;;;;16.00;15.25;;;;;-143.90;100.00;76141.94;5318599;25;99961;-76
2024/04/22 01:35:15;;;;;;;;;17.50;13.25;;;;;-143.90;100.00;76150.22;5310751;25;98770;-75
2024/04/22 01:37:42;;;;;;;;;18.25;15.25;;;;;-143.90;100.00;76148.16;5313513;25;99824;-75
2024/04/22 01:40:09;;;;;;;;;22.00;18.00;;;;;-143.90;100.00;76152.28;5306003;25;100949;-74
2024/04/22 01:42:36;;;;;;;;;17.25;16.75;;;;;-143.90;100.00;76160.56;5320335;25;98510;-75
2024/04/22 01:45:03;;;;;;;;;24.75;19.50;;;;;-143.90;100.00;76172.97;5314020;25;98457;-76
2024/04/22 01:47:30;;;;;;;;;20.50;18.00;;;;;-143.90;100.00;76183.31;5316407;25;99947;-74
2024/04/22 01:49:56;;;;;;;;;17.25;15.00;;;;;-143.90;100.00;76185.38;5315733;25;100834;-76
2024/04/22 01:52:23;;;;;;;;;15.25;14.50;;;;;-143.90;100.00;76193.66;5314014;25;99033;-76
2024/04/22 01:54:50;;;;;;;;;15.25;12.75;;;;;-143.90;100.00;76199.84;5321463;25;97943;-75
2024/04/22 01:57:17;;;;;;;;;18.00;15.00;;;;;-143.90;100.00;76203.97;5317486;25;100375;-74
2024/04/22 01:59:43;;;;;;;;;17.50;14.25;;;;;-143.90;100.00;76210.19;5314366;25;98530;-76
2024/04/22 02:02:10;;;;;;;;;18.00;14.75;;;;;-143.90;100.00;76218.47;5308837;25;98440;-74
2024/04/22 02:04:37;;;;;;;;;16.25;14.50;;;;;-143.90;100.00;76210.19;5315501;25;98479;-74
2024/04/22 02:07:03;;;;;;;;;16.00;14.25;;;;;-143.90;100.00;76218.47;5317793;25;104458;-75
2024/04/22 02:09:30;;;;;;;;;12.50;11.25;;;;;-143.90;100.00;76218.47;5316844;25;98531;-75
2024/04/22 02:11:57;;;;;;;;;10.75;10.00;;;;;-143.90;100.00;76228.81;5311720;25;98551;-75
2024/04/22 02:14:24;;;;;;;;;16.50;13.00;;;;;-143.90;100.00;76226.72;5310475;26;98684;-76
2024/04/22 02:16:50;;;;;;;;;16.25;13.75;;;;;-143.90;100.00;76232.94;5319523;25;100014;-75
2024/04/22 02:19:17;;;;;;;;;14.25;10.25;;;;;-143.90;100.00;76241.22;5313367;25;100010;-75
2024/04/22 02:21:44;;;;;;;;;11.50;10.00;;;;;-143.90;100.00;76241.22;5317965;25;97943;-76
2024/04/22 02:24:11;;;;;;;;;18.00;13.00;;;;;-143.90;100.00;76247.41;5311193;25;99287;-75
2024/04/22 02:26:37;;;;;;;;;14.00;13.00;;;;;-143.90;100.00;76241.22;5317341;25;99806;-75
2024/04/22 02:29:04;;;;;;;;;10.25;9.75;;;;;-143.90;100.00;76249.47;5320938;25;98482;-74
2024/04/22 02:31:31;;;;;;;;;10.75;9.00;;;;;-143.90;100.00;76251.53;5312564;25;98055;-75
2024/04/22 02:33:57;;;;;;;;;12.00;10.00;;;;;-143.90;100.00;76251.53;5313267;25;98341;-74
2024/04/22 02:36:24;;;;;;;;;15.50;13.25;;;;;-143.90;100.00;76257.75;5316404;25;99797;-74
2024/04/22 02:38:51;;;;;;;;;14.50;10.25;;;;;-143.90;100.00;76259.81;5315759;25;98689;-75
2024/04/22 02:41:18;;;;;;;;;11.75;11.00;;;;;-143.90;100.00;76259.81;5313796;25;98825;-77
2024/04/22 02:43:47;;;;;;;;;12.50;11.25;;;;;-143.90;100.00;76268.09;5318872;25;98563;-75
2024/04/22 02:46:13;;;;;;;;;5.00;2.25;;;;;-143.90;100.00;76268.09;5307387;26;99757;-74
2024/04/22 02:48:40;;;;;;;;;19.00;16.00;;;;;-143.90;100.00;76278.44;5318854;25;98136;-75
2024/04/22 02:51:07;;;;;;;;;15.75;14.75;;;;;-143.90;100.00;76284.63;5319162;25;97992;-73
2024/04/22 02:53:33;;;;;;;;;14.75;12.50;;;;;-143.90;100.00;76286.69;5324135;25;98735;-75
2024/04/22 02:56:00;;;;;;;;;14.00;11.25;;;;;-143.90;100.00;76284.63;5311333;25;99765;-73
2024/04/22 02:58:28;;;;;;;;;13.25;12.00;;;;;-143.90;100.00;76288.78;5325867;25;98253;-75
2024/04/22 03:00:55;;;;;;;;;12.75;11.75;;;;;-143.90;100.00;76294.97;5316372;25;98199;-75
2024/04/22 03:03:22;;;;;;;;;13.25;13.00;;;;;-143.90;100.00;76288.78;5324887;25;100295;-75
2024/04/22 03:05:49;;;;;;;;;20.00;15.00;;;;;-143.90;100.00;76297.03;5318687;25;99818;-74
2024/04/22 03:08:15;;;;;;;;;14.50;12.50;;;;;-143.90;100.00;76303.25;5308069;25;99594;-75
2024/04/22 03:10:42;;;;;;;;;14.00;13.75;;;;;-143.90;100.00;76305.31;5320359;25;98529;-74
2024/04/22 03:13:09;;;;;;;;;13.75;13.00;;;;;-143.90;100.00;76311.53;5309042;25;98179;-73
2024/04/22 03:15:38;;;;;;;;;14.75;13.00;;;;;-143.90;100.00;76309.44;5319357;25;99814;-75
2024/04/22 03:18:06;;;;;;;;;13.25;12.75;;;;;-143.90;100.00;76317.72;5310484;25;98763;-75
2024/04/22 03:20:35;;;;;;;;;20.00;14.67;;;;;-143.90;100.00;76323.94;5322341;25;99430;-75
2024/04/22 03:23:02;;;;;;;;;16.00;14.33;;;;;-143.90;100.00;76330.13;5318979;25;98187;-75
2024/04/22 03:25:29;;;;;;;;;14.33;10.00;;;;;-143.90;100.00;76326.00;5318623;25;100496;-75
2024/04/22 03:27:55;;;;;;;;;14.25;13.50;;;;;-143.90;100.00;76332.19;5314879;25;98363;-75
2024/04/22 03:30:22;;;;;;;;;18.00;12.00;;;;;-143.90;100.00;76332.19;5316293;25;98667;-74
2024/04/22 03:32:49;;;;;;;;;13.50;9.25;;;;;-143.90;100.00;76338.41;5316845;25;98394;-75
2024/04/22 03:35:16;;;;;;;;;14.00;10.00;;;;;-143.90;100.00;76334.25;5319612;25;99945;-74
2024/04/22 03:37:42;;;;;;;;;13.50;9.75;;;;;-143.90;100.00;76334.25;5316672;25;98034;-74
2024/04/22 03:40:09;;;;;;;;;14.00;13.33;;;;;-143.90;100.00;76332.19;5314655;25;100254;-74
2024/04/22 03:42:37;;;;;;;;;10.00;9.00;;;;;-143.90;100.00;76336.34;5323255;25;98579;-74
2024/04/22 03:45:04;;;;;;;;;14.50;10.00;;;;;-143.90;100.00;76338.41;5319587;25;104435;-75
2024/04/22 03:50:16;;;;;;;;;9.25;6.75;;;;;-143.90;100.00;76338.41;5303269;25;98985;-76
2024/04/22 03:52:43;;;;;;;;;18.33;12.67;;;;;-143.90;100.00;76338.41;5317496;25;98106;-74
2024/04/22 03:55:10;;;;;;;;;13.75;11.00;;;;;-143.90;100.00;76336.34;5300769;25;99946;-74
2024/04/22 03:57:36;;;;;;;;;14.67;13.00;;;;;-143.90;100.00;76342.53;5320263;25;99745;-75
2024/04/22 04:00:03;;;;;;;;;10.00;10.00;;;;;-143.90;100.00;76348.75;5310598;25;98327;-75
2024/04/22 04:02:32;;;;;;;;;10.67;10.67;;;;;-143.90;100.00;76359.09;5312576;25;98972;-75
2024/04/22 04:04:59;;;;;;;;;13.50;10.75;;;;;-143.90;100.00;76354.94;5318420;25;100104;-75
2024/04/22 04:07:26;;;;;;;;;14.33;12.00;;;;;-143.90;100.00;76361.16;5324509;26;99469;-75
2024/04/22 04:09:53;;;;;;;;;13.00;11.50;;;;;-143.90;100.00;76369.41;5321717;26;103112;-74
2024/04/22 04:12:20;;;;;;;;;13.75;12.00;;;;;-143.90;100.00;76369.41;5262277;25;102905;-74
2024/04/22 04:14:46;;;;;;;;;12.00;11.00;;;;;-143.90;100.00;76369.41;5321925;25;105519;-75
2024/04/22 04:17:13;;;;;;;;;12.33;12.00;;;;;-143.90;100.00;76377.69;5306609;26;99891;-75
2024/04/22 04:19:40;;;;;;;;;22.00;18.33;;;;;-143.90;100.00;76383.91;5317905;25;98639;-74
2024/04/22 04:22:07;;;;;;;;;20.67;19.00;;;;;-143.90;100.00;76400.44;5303106;25;100067;-73
2024/04/22 04:24:33;;;;;;;;;20.33;17.33;;;;;-143.90;100.00;76404.56;5311975;25;99721;-74
2024/04/22 04:27:00;;;;;;;;;15.33;14.33;;;;;-143.90;100.00;76406.66;5311753;25;100533;-74
2024/04/22 04:29:27;;;;;;;;;23.67;18.67;;;;;-143.90;100.00;76427.31;5304880;25;98832;-75
2024/04/22 04:31:54;;;;;;;;;19.00;17.33;;;;;-143.90;100.00;76421.13;5308796;25;99105;-74
2024/04/22 04:34:21;;;;;;;;;21.67;18.00;;;;;-143.90;100.00;76412.84;5274220;26;100364;-75
2024/04/22 04:36:47;;;;;;;;;22.33;17.00;;;;;-143.90;100.00;76419.06;5291165;25;98583;-75
2024/04/22 04:39:14;;;;;;;;;29.33;25.67;;;;;-143.90;100.00;76425.25;5307700;25;103997;-74
2024/04/22 04:41:41;;;;;;;;;24.67;21.33;;;;;-143.90;100.00;76429.41;5314576;25;99539;-75
2024/04/22 04:44:08;;;;;;;;;27.33;21.33;;;;;-143.90;100.00;76429.41;5303956;25;99747;-75
2024/04/22 04:46:35;;;;;;;;;27.00;20.33;;;;;-143.90;100.00;76423.19;5262330;26;98106;-75
2024/04/22 04:49:02;;;;;;;;;30.00;22.00;;;;;-143.90;100.00;76429.41;5316286;25;98016;-74
2024/04/22 04:51:28;;;;;;;;;29.33;25.00;;;;;-143.90;100.00;76429.41;5315146;25;98039;-75
2024/04/22 04:53:55;;;;;;;;;24.33;20.67;;;;;-143.90;100.00;76414.91;5288526;26;99826;-75
2024/04/22 04:56:22;;;;;;;;;25.33;21.00;;;;;-143.90;100.00;76400.44;5303060;25;98035;-74
2024/04/22 04:58:52;;;;;;;;;25.67;22.67;;;;;-143.90;100.00;76383.91;5315806;25;98061;-75
2024/04/22 05:01:19;;;;;;;;;28.67;22.67;;;;;-143.90;100.00;76381.84;5312192;25;98597;-75
2024/04/22 05:03:46;;;;;;;;;27.67;24.67;;;;;-143.90;100.00;76375.63;5317585;25;99821;-75
2024/04/22 05:06:13;;;;;;;;;24.67;22.33;;;;;-143.90;100.00;76367.34;5296197;25;101255;-75
2024/04/22 05:08:40;;;;;;;;;31.33;24.33;;;;;-143.90;100.00;76375.63;5309058;26;98576;-76
2024/04/22 05:11:06;;;;;;;;;39.33;27.33;;;;;-143.90;100.00;76379.75;5316171;25;98632;-75
2024/04/22 05:13:33;;;;;;;;;36.00;27.33;;;;;-143.90;100.00;76390.09;5320898;25;99900;-74
2024/04/22 05:16:00;;;;;;;;;32.33;25.33;;;;;-143.90;100.00;76379.75;5313792;25;98085;-75
2024/04/22 05:18:27;;;;;;;;;29.00;24.67;;;;;-143.90;100.00;76383.91;5300373;25;98298;-76
2024/04/22 05:20:54;;;;;;;;;28.33;27.00;;;;;-143.90;100.00;76375.63;5315672;25;97916;-76
2024/04/22 05:23:20;;;;;;;;;32.33;30.00;;;;;-143.90;100.00;76367.34;5321438;25;99754;-76
2024/04/22 05:25:47;;;;;;;;;23.33;21.67;;;;;-143.90;100.00;76354.94;5308566;25;98266;-76
2024/04/22 05:28:15;;;;;;;;;24.33;20.67;;;;;-143.90;100.00;76363.22;5301386;25;98808;-75
2024/04/22 05:30:42;;;;;;;;;33.00;27.33;;;;;-143.90;100.00;76363.22;5320309;25;98510;-75
2024/04/22 05:36:11;;;;;;;;;31.67;27.67;;;;;-143.90;100.00;76350.81;5307328;25;98923;-74
2024/04/22 05:38:39;;;;;;;;;27.67;23.00;;;;;-143.90;100.00;76354.94;5304079;25;98639;-74
2024/04/22 05:41:06;;;;;;;;;29.67;21.67;;;;;-143.90;100.00;76344.59;5296085;25;101640;-75
2024/04/22 05:43:33;;;;;;;;;33.00;24.00;;;;;-143.90;100.00;76328.06;5299449;25;104274;-75
2024/04/22 05:46:00;;;;;;;;;31.67;26.33;;;;;-143.90;100.00;76321.84;5307632;26;98664;-75
2024/04/22 05:48:29;;;;;;;;;26.33;21.00;;;;;-143.90;100.00;76297.03;5277923;26;99313;-75
2024/04/22 05:50:56;;;;;;;;;28.33;22.00;;;;;-143.90;100.00;76294.97;5294219;25;98506;-75
2024/04/22 05:53:23;;;;;;;;;22.33;21.33;;;;;-143.90;100.00;76286.69;5317263;26;99875;-75
2024/04/22 05:55:50;;;;;;;;;29.33;22.00;;;;;-143.90;100.00;76280.50;5284917;26;98463;-75
2024/04/22 05:58:16;;;;;;;;;22.33;20.33;;;;;-143.90;100.00;76255.69;5282596;25;98672;-75
2024/04/22 06:00:44;;;;;;;;;25.67;20.67;;;;;-143.90;100.00;76237.06;5319609;25;98694;-75
2024/04/22 06:03:10;;;;;;;;;24.67;21.33;;;;;-143.90;100.00;76237.06;5315018;25;100590;-76
2024/04/22 06:05:37;;;;;;;;;23.00;21.00;;;;;-143.90;100.00;76235.00;5319351;25;98251;-74
2024/04/22 06:08:04;;;;;;;;;28.25;23.75;;;;;-143.90;100.00;76259.81;5314178;25;98462;-74
2024/04/22 06:10:31;;;;;;;;;25.00;22.00;;;;;-143.90;100.00;76263.97;5309867;25;98512;-75
2024/04/22 06:12:58;;;;;;;;;22.67;21.33;;;;;-143.90;100.00;76284.63;5317339;25;99954;-76
2024/04/22 06:15:24;;;;;;;;;23.00;22.67;;;;;-143.90;100.00;76292.91;5317146;25;97992;-76
2024/04/22 06:17:51;;;;;;;;;28.33;24.00;;;;;-143.90;100.00;76309.44;5303292;25;99664;-76
2024/04/22 06:20:18;;;;;;;;;31.00;25.33;;;;;-143.90;100.00;76313.59;5309117;25;99433;-77
2024/04/22 06:22:45;;;;;;;;;18.00;17.00;;;;;-143.90;100.00;76321.84;5309555;25;99738;-75
2024/04/22 06:25:11;;;;;;;;;24.00;21.00;;;;;-143.90;100.00;76321.84;5320641;25;98313;-75
2024/04/22 06:27:40;;;;;;;;;24.67;21.67;;;;;-143.90;100.00;76317.72;5317268;25;98853;-75
2024/04/22 06:30:07;;;;;;;;;33.33;24.00;;;;;-143.90;100.00;76268.09;5300378;25;98817;-73
2024/04/22 06:32:34;;;;;;;;;27.25;21.75;;;;;-143.90;100.00;76230.88;5322101;25;104393;-76
2024/04/22 06:35:02;;;;;;;;;23.67;20.33;;;;;-143.90;100.00;76210.19;5309276;25;98094;-76
2024/04/22 06:37:29;;;;;;;;;21.00;18.33;;;;;-143.90;100.00;76206.06;5315521;25;97946;-77
2024/04/22 06:39:56;;;;;;;;;24.00;20.33;;;;;-143.90;100.00;76185.38;5306414;25;98180;-77
2024/04/22 06:42:23;;;;;;;;;22.75;18.25;;;;;-143.90;98.97;76175.03;5294745;25;99762;-75
2024/04/22 06:44:50;;;;;;;;;16.33;15.00;;;;;-143.90;95.37;76187.44;5261454;26;99573;-75
2024/04/22 06:47:17;;;;;;;;;19.00;18.00;;;;;-143.90;95.94;76206.06;5168862;26;98012;-76
2024/04/22 06:49:44;;;;;;;;;20.25;19.00;;;;;-143.90;93.36;76218.47;4984139;26;98003;-76
2024/04/22 06:52:10;;;;;;;;;19.75;18.50;;;;;-143.90;92.37;76220.53;5117389;25;99743;-75
2024/04/22 06:54:37;;;;;;;;;22.00;19.25;;;;;-143.90;91.07;76218.47;5103281;25;98098;-76
2024/04/22 06:57:04;;;;;;;;;21.50;18.50;;;;;-143.90;89.32;76214.31;5192940;25;98516;-75
2024/04/22 06:59:31;;;;;;;;;15.50;15.00;;;;;-143.90;88.41;76191.56;5217144;26;100359;-74
2024/04/22 07:01:57;;;;;;;;;26.00;21.00;;;;;-143.90;87.50;76189.50;4877350;25;103583;-74
2024/04/22 07:04:24;;;;;;;;;18.00;14.00;;;;;-143.90;87.07;76187.44;4863076;26;99125;-75
2024/04/22 07:06:51;;;;;;;;;19.25;16.50;;;;;-143.90;86.05;76177.09;5012762;26;98011;-76
2024/04/22 07:09:18;;;;;;;;;19.25;14.75;;;;;-143.90;85.38;76125.41;4952363;26;98690;-73
2024/04/22 07:11:45;;;;;;;;;15.00;11.00;;;;;-143.90;83.59;76098.53;5137357;25;99903;-75
2024/04/22 07:14:13;;;;;;;;;11.75;10.00;;;;;-143.90;83.19;76050.97;5307685;25;98168;-75
2024/04/22 07:16:40;;;;;;;;;13.50;10.00;;;;;-143.90;82.56;76013.75;5275843;25;99070;-75
2024/04/22 07:19:08;;;;;;;;;6.50;6.50;;;;;-143.90;79.41;75995.13;5302099;25;98203;-75
2024/04/22 07:21:34;;;;;;;;;14.50;12.50;;;;;-143.90;79.42;75988.94;5156068;25;99915;-74
2024/04/22 07:24:01;;;;;;;;;14.00;12.75;;;;;-143.90;76.16;76003.41;4935293;26;98169;-77
2024/04/22 07:26:28;;;;;;;;;16.75;12.75;;;;;-143.90;72.75;76057.16;5213579;25;98276;-75
2024/04/22 07:28:55;;;;;;;;;12.75;12.25;;;;;-143.90;75.18;76133.69;5166582;25;99424;-75
2024/04/22 07:31:22;;;;;;;;;9.75;8.50;;;;;-143.90;76.95;76144.00;5216955;25;99864;-75
2024/04/22 07:33:49;;;;;;;;;14.00;10.00;;;;;-143.90;75.74;76166.75;4893833;25;98131;-74
2024/04/22 07:36:31;;;;;;;;;10.25;5.75;;;;;-143.90;76.03;76197.78;5138660;26;98205;-74
2024/04/22 07:39:00;;;;;;;;;11.00;10.00;;;;;-143.90;76.09;76226.72;5023556;26;98305;-72
2024/04/22 07:41:28;;;;;;;;;9.50;8.75;;;;;-143.90;76.97;76235.00;4933361;25;101218;-73
2024/04/22 07:43:54;;;;;;;;;9.00;7.50;;;;;-143.90;76.63;76235.00;5147717;26;98698;-74
2024/04/22 07:46:22;;;;;;;;;9.00;8.75;;;;;-143.90;76.04;76235.00;5088428;25;98088;-74
2024/04/22 07:48:49;;;;;;;;;8.75;7.75;;;;;-143.90;73.49;76243.28;5202185;26;99550;-75
2024/04/22 07:51:16;;;;;;;;;12.00;10.00;;;;;-143.90;73.97;76243.28;5232855;26;99819;-75
2024/04/22 07:53:43;;;;;;;;;6.75;6.25;;;;;-143.90;75.82;76243.28;5170419;25;99882;-75
2024/04/22 07:56:17;;;;;;;;;10.50;9.00;;;;;-143.90;74.50;76249.47;5344062;26;98496;-73
2024/04/22 07:58:45;;;;;;;;;6.75;6.75;;;;;-143.90;73.44;76259.81;5347329;26;99582;-76
2024/04/22 08:01:12;;;;;;;;;8.50;6.50;;;;;-143.90;71.54;76259.81;5341780;26;99805;-74
2024/04/22 08:03:40;;;;;;;;;7.25;6.00;;;;;-143.90;71.47;76251.53;5344508;26;98002;-74
2024/04/22 08:06:13;;;;;;;;;2.00;2.00;;;;;-143.90;68.26;76247.41;5340312;26;97936;-75
2024/04/22 08:08:41;;;;;;;;;9.00;7.00;;;;;-143.90;68.73;76206.06;5342565;26;98481;-74
2024/04/22 08:11:08;;;;;;;;;7.00;7.00;;;;;-143.90;68.17;76162.63;5340908;26;99571;-74
2024/04/22 08:13:35;;;;;;;;;7.25;6.25;;;;;-143.90;66.06;76152.28;5349141;26;97890;-74
2024/04/22 08:16:02;;;;;;;;;5.50;5.50;;;;;-143.90;65.90;76141.94;5344623;26;97958;-76
2024/04/22 08:18:30;;;;;;;;;8.50;7.00;;;;;-143.90;66.41;76133.69;5344269;26;97907;-76
2024/04/22 08:20:57;;;;;;;;;10.50;8.00;;;;;-143.90;63.36;76119.19;5342818;26;99905;-75
2024/04/22 08:23:24;;;;;;;;;7.00;5.75;;;;;-143.90;65.05;76135.75;5344578;26;98520;-74
2024/04/22 08:25:51;;;;;;;;;7.00;7.00;;;;;-143.90;62.64;76146.09;5340398;26;99343;-74
2024/04/22 08:28:19;;;;;;;;;6.50;5.25;;;;;-143.90;64.08;76139.88;5347265;26;98249;-73
2024/04/22 08:30:46;;;;;;;;;7.50;6.25;;;;;-143.90;62.83;76119.19;5347421;26;99755;-75
2024/04/22 08:33:12;;;;;;;;;6.75;6.00;;;;;-143.90;64.23;76125.41;5344500;26;98093;-74
2024/04/22 08:35:48;;;;;;;;;9.00;6.25;;;;;-143.90;64.36;76086.13;5354633;26;97889;-76
2024/04/22 08:38:14;;;;;;;;;7.00;6.00;;;;;-143.90;64.54;76057.16;5341686;26;98331;-76
2024/04/22 08:40:42;;;;;;;;;5.25;4.50;;;;;-143.90;60.91;76036.47;5340031;26;99682;-75
2024/04/22 08:43:13;;;;;;;;;6.00;5.50;;;;;-143.90;60.20;76015.81;5346182;25;99609;-75
2024/04/22 08:45:47;;;;;;;;;6.00;5.00;;;;;-143.90;60.38;75993.06;5347801;26;98185;-75
2024/04/22 08:48:14;;;;;;;;;7.00;6.00;;;;;-143.90;57.72;76003.41;5347577;26;98758;-74
2024/04/22 08:50:41;;;;;;;;;7.75;7.25;;;;;-143.90;58.40;76005.47;5342080;26;99840;-75
2024/04/22 08:53:09;;;;;;;;;6.25;6.25;;;;;-143.90;58.96;75999.25;5346717;26;97883;-75
2024/04/22 08:55:37;;;;;;;;;5.50;5.25;;;;;-143.90;58.55;75988.94;5340995;26;99539;-75
2024/04/22 08:58:05;;;;;;;;;5.50;5.25;;;;;-143.90;58.44;75995.13;5340597;26;98296;-75
2024/04/22 09:00:31;;;;;;;;;6.50;6.00;;;;;-143.90;59.78;75986.84;5342460;26;99897;-75
2024/04/22 09:02:59;;;;;;;;;3.00;2.00;;;;;-143.90;59.37;75968.25;5339161;26;98275;-75
2024/04/22 09:05:26;;;;;;;;;7.75;6.25;;;;;-143.90;59.74;75959.97;5342278;26;97852;-75
2024/04/22 09:07:54;;;;;;;;;7.50;6.00;;;;;-143.90;59.81;75949.63;5259947;25;98025;-75
2024/04/22 09:10:24;;;;;;;;;6.00;6.00;;;;;-143.90;57.04;75953.78;4930992;26;100776;-76
2024/04/22 09:13:10;;;;;;;;;6.00;4.75;;;;;-143.90;57.14;75982.72;5301935;26;98380;-76
2024/04/22 09:15:37;;;;;;;;;6.25;6.00;;;;;-143.90;56.69;75999.25;5338941;26;98339;-75
2024/04/22 09:18:12;;;;;;;;;8.00;5.50;;;;;-143.90;58.42;76013.75;5346032;26;98281;-76
2024/04/22 09:20:39;;;;;;;;;7.00;7.00;;;;;-143.90;56.72;76007.53;5341392;26;99742;-75
2024/04/22 09:23:06;;;;;;;;;9.25;7.00;;;;;-143.90;56.70;76003.41;5340737;26;98713;-75
2024/04/22 09:25:34;;;;;;;;;8.50;6.75;;;;;-143.90;58.21;76019.94;5350193;26;98365;-75
2024/04/22 09:28:03;;;;;;;;;5.50;5.00;;;;;-143.90;58.54;76007.53;5343015;26;97912;-75
2024/04/22 09:30:38;;;;;;;;;5.25;5.00;;;;;-143.90;57.88;76011.66;5341423;26;100034;-75
2024/04/22 09:33:08;;;;;;;;;7.00;6.25;;;;;-143.90;57.98;76005.47;5264822;25;101178;-75
2024/04/22 09:35:36;;;;;;;;;5.00;5.00;;;;;-143.90;59.17;75995.13;5063228;25;98529;-75
2024/04/22 09:38:03;;;;;;;;;6.00;6.00;;;;;-143.90;56.97;76005.47;5334927;26;97838;-75
2024/04/22 09:40:31;;;;;;;;;6.00;4.25;;;;;-143.90;57.23;75984.78;5349043;26;99803;-76
2024/04/22 09:42:59;;;;;;;;;8.00;7.50;;;;;-143.90;53.41;75986.84;5344643;26;98315;-75
2024/04/22 09:45:26;;;;;;;;;6.75;6.00;;;;;-143.90;54.33;75970.31;5343206;26;98155;-74
2024/04/22 09:47:53;;;;;;;;;7.00;6.50;;;;;-143.90;53.61;75947.56;5342117;26;98576;-75
2024/04/22 09:50:20;;;;;;;;;10.50;8.00;;;;;-143.90;53.14;75933.09;5341126;26;99909;-75
2024/04/22 09:52:48;;;;;;;;;6.25;6.00;;;;;-143.90;51.75;75920.69;5342606;26;97835;-75
2024/04/22 09:55:15;;;;;;;;;6.25;5.50;;;;;-143.90;53.17;75900.00;5341446;26;98409;-75
2024/04/22 09:57:45;;;;;;;;;11.00;9.25;;;;;-143.90;51.60;75869.00;5350235;26;98102;-74
2024/04/22 10:00:15;;;;;;;;;8.75;6.50;;;;;-143.90;49.59;75887.59;5341086;26;99815;-75
2024/04/22 10:02:43;;;;;;;;;6.75;6.00;;;;;-143.90;50.44;75862.78;5341676;26;97907;-75
2024/04/22 10:05:11;;;;;;;;;6.00;6.00;;;;;-143.90;50.18;75854.53;5337261;26;98421;-75
2024/04/22 10:07:39;;;;;;;;;8.00;7.50;;;;;-143.90;48.60;75864.84;5338546;26;98384;-75
2024/04/22 10:10:09;;;;;;;;;7.00;6.00;;;;;-143.90;50.23;75856.59;5340347;26;99720;-75
2024/04/22 10:12:36;;;;;;;;;7.25;6.50;;;;;-143.90;49.43;75856.59;5334435;26;98466;-75
2024/04/22 10:15:11;;;;;;;;;7.25;7.00;;;;;-143.90;48.62;75846.25;5341171;26;97907;-75
2024/04/22 10:17:39;;;;;;;;;6.00;6.00;;;;;-143.90;49.53;75831.78;5338951;26;98669;-75
2024/04/22 10:20:07;;;;;;;;;4.50;4.50;;;;;-143.90;48.97;75837.97;5340482;26;99968;-75
2024/04/22 10:22:36;;;;;;;;;7.00;5.50;;;;;-143.90;50.23;75825.56;5333788;25;97925;-75
2024/04/22 10:25:05;;;;;;;;;8.75;8.25;;;;;-143.90;48.95;75829.72;5163256;26;99363;-74
2024/04/22 10:27:32;;;;;;;;;8.00;8.00;;;;;-143.90;48.42;75840.03;4981071;25;98507;-73
2024/04/22 10:29:59;;;;;;;;;12.25;10.00;;;;;-143.90;47.36;75871.06;5079546;25;100924;-74
2024/04/22 10:32:27;;;;;;;;;9.00;8.25;;;;;-143.90;49.05;75844.19;4975544;26;98382;-75
2024/04/22 10:34:54;;;;;;;;;7.25;7.25;;;;;-143.90;48.32;75819.38;5081302;25;98402;-74
2024/04/22 10:37:21;;;;;;;;;8.00;7.75;;;;;-143.90;48.11;75804.91;5232096;25;98127;-75
2024/04/22 10:39:49;;;;;;;;;8.00;7.00;;;;;-143.90;48.04;75767.69;5107204;26;99754;-75
2024/04/22 10:42:17;;;;;;;;;11.00;9.50;;;;;-143.90;45.92;75767.69;4876955;26;98460;-74
2024/04/22 10:44:45;;;;;;;;;12.00;9.00;;;;;-143.90;46.23;75778.00;5111419;26;98377;-74
2024/04/22 10:47:12;;;;;;;;;8.00;7.25;;;;;-143.90;47.39;75771.81;5106443;25;98403;-74
2024/04/22 10:49:41;;;;;;;;;12.00;10.25;;;;;-143.90;46.31;75784.22;5151229;26;99368;-74
2024/04/22 10:52:08;;;;;;;;;14.00;10.25;;;;;-143.90;45.50;75831.78;5084071;26;99072;-76
2024/04/22 10:54:35;;;;;;;;;8.25;7.50;;;;;-143.90;46.24;75798.69;5115532;25;98071;-74
2024/04/22 10:57:03;;;;;;;;;9.00;9.00;;;;;-143.90;46.80;75792.50;5176533;26;98001;-74
2024/04/22 10:59:29;;;;;;;;;8.75;7.00;;;;;-143.90;46.76;75775.94;5173772;25;99816;-74
2024/04/22 11:01:57;;;;;;;;;8.00;7.00;;;;;-143.90;46.36;75788.34;5194349;26;97966;-74
2024/04/22 11:04:24;;;;;;;;;9.25;9.25;;;;;-143.90;46.09;75790.41;5177934;26;99709;-74
2024/04/22 11:06:51;;;;;;;;;10.50;9.50;;;;;-143.90;45.76;75804.91;5341035;26;98149;-74
2024/04/22 11:09:18;;;;;;;;;10.00;9.00;;;;;-143.90;45.99;75817.31;5333045;26;99761;-75